Time;durP1;ratioP1;P1;durP2;ratioP2;P2;SDS_P1;SDS_P2;PMS_P1;PMS_P2;Temp;Humidity;BMP_temperature;BMP_pressure;BME280_temperature;BME280_humidity;BME280_pressure;Samples;Min_cycle;Max_cycle;Signal;HPM_P1;HPM_P2
2022/04/27 00:00:38;;;;;;;;;16.60;14.40;;;;;16.50;68.34;99234.63;4987827;28;8865;-77
2022/04/27 00:03:07;;;;;;;;;18.00;18.00;;;;;16.51;69.13;99225.81;4955700;28;9003;-75
2022/04/27 00:05:37;;;;;;;;;17.60;15.80;;;;;16.54;68.86;99228.38;4978443;28;8929;-78
2022/04/27 00:08:06;;;;;;;;;15.80;15.20;;;;;16.62;68.92;99232.53;4967818;28;8859;-79
2022/04/27 00:10:34;;;;;;;;;17.40;17.00;;;;;16.64;68.13;99242.09;4968174;28;8847;-77
2022/04/27 00:13:03;;;;;;;;;14.80;13.80;;;;;16.31;69.54;99244.84;4947950;28;8863;-78
2022/04/27 00:15:32;;;;;;;;;15.20;14.80;;;;;15.84;72.32;99241.75;4993305;28;8848;-74
2022/04/27 00:18:00;;;;;;;;;23.25;18.75;;;;;15.84;72.57;99252.28;4993541;28;8960;-75
2022/04/27 00:20:29;;;;;;;;;18.40;15.20;;;;;15.84;72.02;99247.03;5046856;28;8851;-75
2022/04/27 00:22:59;;;;;;;;;17.40;16.60;;;;;15.82;72.97;99248.81;5037049;28;8962;-74
2022/04/27 00:25:28;;;;;;;;;16.60;16.60;;;;;15.90;73.04;99248.63;5010469;28;8864;-76
2022/04/27 00:27:56;;;;;;;;;20.00;18.25;;;;;15.94;72.44;99245.84;5026617;28;8997;-74
2022/04/27 00:30:25;;;;;;;;;15.00;15.00;;;;;16.11;72.60;99247.16;5026363;28;8860;-74
2022/04/27 00:32:54;;;;;;;;;20.00;17.20;;;;;16.22;71.86;99242.47;5026302;28;8851;-76
2022/04/27 00:35:22;;;;;;;;;19.60;18.20;;;;;16.36;71.09;99244.69;5026269;28;8894;-76
2022/04/27 00:37:51;;;;;;;;;16.40;15.40;;;;;16.45;70.47;99247.06;5041577;28;8958;-75
2022/04/27 00:40:21;;;;;;;;;19.40;18.00;;;;;16.52;70.52;99255.63;5028668;28;8857;-74
2022/04/27 00:42:50;;;;;;;;;22.75;20.75;;;;;16.45;70.00;99252.31;5025973;28;8868;-76
2022/04/27 00:45:18;;;;;;;;;19.80;19.60;;;;;16.29;70.91;99256.28;5028386;28;8944;-74
2022/04/27 00:47:47;;;;;;;;;24.00;22.00;;;;;16.22;71.11;99257.38;5045945;28;8865;-74
2022/04/27 00:50:16;;;;;;;;;20.75;20.75;;;;;16.27;71.16;99261.59;5013019;28;9517;-74
2022/04/27 00:52:45;;;;;;;;;22.75;21.50;;;;;16.35;71.63;99264.88;5045870;28;8838;-76
2022/04/27 00:55:14;;;;;;;;;21.50;21.50;;;;;16.33;71.45;99271.09;5052274;28;8858;-77
2022/04/27 00:57:46;;;;;;;;;26.50;25.25;;;;;16.33;71.84;99269.34;5049489;28;8865;-75
2022/04/27 01:00:15;;;;;;;;;26.00;26.00;;;;;16.41;71.58;99266.50;5033159;28;8826;-75
2022/04/27 01:02:44;;;;;;;;;23.75;22.75;;;;;16.49;71.72;99269.75;5066030;28;8856;-75
2022/04/27 01:05:13;;;;;;;;;25.00;23.75;;;;;16.57;70.88;99273.00;5049663;28;8974;-78
2022/04/27 01:07:42;;;;;;;;;17.75;17.00;;;;;16.53;70.30;99273.16;5066216;28;8866;-75
2022/04/27 01:10:12;;;;;;;;;25.25;23.25;;;;;16.59;70.52;99280.00;5032701;28;9570;-75
2022/04/27 01:12:44;;;;;;;;;21.75;21.50;;;;;16.14;69.97;99297.94;5086412;28;8864;-76
2022/04/27 01:15:31;;;;;;;;;23.50;22.25;;;;;15.37;74.77;99312.16;5084140;28;8969;-78
2022/04/27 01:18:00;;;;;;;;;24.75;21.75;;;;;15.56;74.09;99309.94;5050386;28;8846;-74
2022/04/27 01:20:37;;;;;;;;;25.25;25.25;;;;;15.86;74.28;99317.97;5083803;28;8870;-76
2022/04/27 01:23:07;;;;;;;;;21.00;21.00;;;;;16.11;74.14;99307.69;5083509;28;8948;-76
2022/04/27 01:25:54;;;;;;;;;20.75;20.00;;;;;16.33;74.34;99314.06;5050052;28;9576;-74
2022/04/27 01:28:25;;;;;;;;;24.80;20.40;;;;;16.51;73.22;99312.69;5051466;28;8857;-75
2022/04/27 01:30:58;;;;;;;;;25.25;23.00;;;;;16.66;72.37;99315.78;5053986;28;8877;-74
2022/04/27 01:33:27;;;;;;;;;22.50;20.75;;;;;16.75;72.00;99297.94;5052172;28;8887;-77
2022/04/27 01:35:59;;;;;;;;;23.50;21.50;;;;;16.74;71.99;99288.31;5084492;28;8880;-75
2022/04/27 01:38:28;;;;;;;;;19.75;19.75;;;;;16.72;71.76;99279.59;5067683;28;8824;-75
2022/04/27 01:40:56;;;;;;;;;22.75;21.25;;;;;16.69;72.63;99279.69;5067263;28;8876;-74
2022/04/27 01:43:25;;;;;;;;;21.50;21.00;;;;;16.58;71.46;99287.06;5067298;28;8880;-74
2022/04/27 01:45:54;;;;;;;;;21.75;20.25;;;;;16.62;71.23;99291.31;5062851;28;8881;-74
2022/04/27 01:48:23;;;;;;;;;29.00;27.50;;;;;16.49;72.16;99303.13;5050551;28;8845;-77
2022/04/27 01:50:52;;;;;;;;;27.50;26.75;;;;;16.53;72.84;99287.16;5051850;28;8966;-75
2022/04/27 01:56:10;;;;;;;;;22.75;21.25;;;;;16.51;70.63;99270.56;5050631;28;8963;-74
2022/04/27 01:58:45;;;;;;;;;20.00;18.00;;;;;16.50;69.42;99273.22;5034531;28;8856;-75
2022/04/27 02:01:14;;;;;;;;;18.20;18.20;;;;;16.51;68.58;99275.81;5056417;28;8857;-73
2022/04/27 02:03:43;;;;;;;;;19.50;18.25;;;;;16.58;68.31;99276.53;5051801;28;8939;-74
2022/04/27 02:06:16;;;;;;;;;20.60;19.20;;;;;16.66;67.63;99276.28;5067392;28;8914;-75
2022/04/27 02:08:46;;;;;;;;;19.60;19.60;;;;;16.79;68.29;99275.00;5067439;28;8995;-72
2022/04/27 02:11:20;;;;;;;;;26.75;25.50;;;;;16.88;68.01;99273.88;5084397;28;9607;-77
2022/04/27 02:14:07;;;;;;;;;22.25;21.25;;;;;16.98;68.32;99267.44;5038468;28;8860;-77
2022/04/27 02:16:39;;;;;;;;;25.25;22.50;;;;;17.04;68.96;99267.25;5050796;28;8899;-76
2022/04/27 02:19:14;;;;;;;;;22.50;21.50;;;;;17.11;69.27;99267.94;5083201;28;8880;-76
2022/04/27 02:21:45;;;;;;;;;26.50;23.75;;;;;17.07;68.51;99261.88;5050442;28;8979;-77
2022/04/27 02:24:16;;;;;;;;;29.75;29.50;;;;;16.97;68.53;99260.44;5032462;28;8896;-75
2022/04/27 02:26:45;;;;;;;;;23.25;21.00;;;;;16.88;68.03;99239.66;5032425;28;8979;-74
2022/04/27 02:29:15;;;;;;;;;25.75;23.25;;;;;16.80;68.11;99249.53;5066474;28;8849;-75
2022/04/27 02:31:44;;;;;;;;;22.25;21.00;;;;;16.87;68.79;99248.47;5080559;28;8901;-74
2022/04/27 02:34:13;;;;;;;;;25.50;23.25;;;;;16.88;67.98;99245.81;5048608;28;8857;-74
2022/04/27 02:36:42;;;;;;;;;23.50;23.00;;;;;16.93;67.44;99241.22;5049551;28;8845;-77
2022/04/27 02:39:11;;;;;;;;;18.60;18.60;;;;;17.02;67.16;99247.13;5049115;28;8833;-75
2022/04/27 02:41:42;;;;;;;;;22.20;21.40;;;;;17.10;67.72;99245.97;5067939;28;8856;-76
2022/04/27 02:44:11;;;;;;;;;27.50;26.50;;;;;17.17;67.86;99243.16;5051012;28;8917;-75
2022/04/27 02:46:39;;;;;;;;;25.25;24.50;;;;;17.24;67.70;99236.75;5049547;28;8853;-75
2022/04/27 02:51:55;;;;;;;;;30.25;30.25;;;;;17.35;67.37;99242.53;5040144;28;8873;-77
2022/04/27 02:54:49;;;;;;;;;44.25;37.75;;;;;17.32;67.59;99240.00;5070185;28;8862;-77
2022/04/27 02:57:19;;;;;;;;;24.00;23.00;;;;;17.32;66.60;99238.22;5053016;28;8828;-75
2022/04/27 02:59:47;;;;;;;;;23.50;22.50;;;;;17.32;67.42;99232.09;5051223;28;8994;-77
2022/04/27 03:02:17;;;;;;;;;17.60;17.60;;;;;17.21;65.38;99229.81;5067973;28;8888;-75
2022/04/27 03:04:46;;;;;;;;;15.20;15.20;;;;;17.05;64.25;99236.47;5067672;28;8886;-75
2022/04/27 03:07:15;;;;;;;;;14.40;14.40;;;;;17.00;64.42;99234.00;5054533;28;8853;-76
2022/04/27 03:09:49;;;;;;;;;16.80;16.60;;;;;17.05;64.83;99228.56;5054158;28;8857;-74
2022/04/27 03:12:19;;;;;;;;;18.40;17.20;;;;;17.09;65.13;99227.59;5054165;28;8818;-78
2022/04/27 03:14:48;;;;;;;;;16.40;16.40;;;;;17.07;64.37;99225.00;5070973;28;8850;-76
2022/04/27 03:17:17;;;;;;;;;16.00;14.60;;;;;17.05;64.79;99229.47;5070402;28;8837;-74
2022/04/27 03:19:47;;;;;;;;;15.40;15.40;;;;;17.12;63.98;99233.59;5073065;28;8861;-76
2022/04/27 03:22:16;;;;;;;;;15.80;15.20;;;;;17.05;62.88;99236.47;5073448;28;8872;-77
2022/04/27 03:24:44;;;;;;;;;47.00;38.25;;;;;17.11;62.77;99231.91;5071116;28;8929;-76
2022/04/27 03:27:21;;;;;;;;;23.25;21.75;;;;;17.17;62.97;99244.00;5046203;28;8948;-78
2022/04/27 03:29:50;;;;;;;;;26.00;25.75;;;;;17.24;62.14;99240.25;5067134;28;8844;-76
2022/04/27 03:32:19;;;;;;;;;17.50;17.00;;;;;17.24;62.26;99252.56;5067167;28;8860;-76
2022/04/27 03:35:00;;;;;;;;;14.60;13.20;;;;;17.21;60.72;99248.25;5060635;28;8836;-75
2022/04/27 03:37:32;;;;;;;;;14.00;14.00;;;;;17.30;60.87;99255.03;5050784;28;9014;-79
2022/04/27 03:40:02;;;;;;;;;13.80;13.80;;;;;17.32;60.52;99259.31;5033033;28;8847;-78
2022/04/27 03:42:32;;;;;;;;;16.40;16.00;;;;;17.40;60.85;99264.34;5050700;28;8968;-76
2022/04/27 03:45:04;;;;;;;;;15.80;15.80;;;;;17.49;60.72;99266.66;5054900;28;8846;-74
2022/04/27 03:47:40;;;;;;;;;18.60;18.00;;;;;17.57;60.90;99270.81;5030569;28;8971;-76
2022/04/27 03:50:10;;;;;;;;;19.25;19.25;;;;;17.62;60.30;99274.19;5012993;28;8912;-75
2022/04/27 03:52:44;;;;;;;;;19.80;19.80;;;;;17.70;60.36;99273.00;5048468;28;8934;-75
2022/04/27 03:55:14;;;;;;;;;18.75;17.75;;;;;17.65;60.33;99279.34;5047384;28;8853;-76
2022/04/27 03:57:48;;;;;;;;;17.40;17.40;;;;;17.48;60.21;99282.53;5083589;28;9093;-75
2022/04/27 04:00:19;;;;;;;;;16.00;15.00;;;;;17.52;59.86;99287.66;5082498;28;9012;-78
2022/04/27 04:02:52;;;;;;;;;28.00;26.25;;;;;17.55;60.62;99289.34;5014361;28;8869;-70
2022/04/27 04:05:22;;;;;;;;;33.50;31.75;;;;;17.50;61.74;99292.13;5049408;28;8920;-67
2022/04/27 04:07:50;;;;;;;;;26.75;26.00;;;;;17.56;62.77;99295.47;5050299;28;8854;-67
2022/04/27 04:10:19;;;;;;;;;23.75;23.25;;;;;17.62;63.85;99292.63;5065517;28;9630;-67
2022/04/27 04:12:52;;;;;;;;;21.50;20.50;;;;;17.69;63.86;99299.41;5063058;28;8828;-66
2022/04/27 04:15:43;;;;;;;;;21.00;21.00;;;;;17.77;63.95;99304.41;5064248;28;8865;-70
2022/04/27 04:18:39;;;;;;;;;30.50;29.00;;;;;17.79;64.47;99300.84;5080748;28;8864;-68
2022/04/27 04:21:18;;;;;;;;;57.00;45.50;;;;;17.83;64.72;99307.72;5063896;28;8841;-66
2022/04/27 04:24:06;;;;;;;;;32.75;30.75;;;;;17.85;64.68;99321.75;5063988;28;8953;-69
2022/04/27 04:29:31;;;;;;;;;28.50;26.25;;;;;17.66;65.80;99320.63;5062073;28;8869;-79
2022/04/27 04:32:01;;;;;;;;;51.00;41.50;;;;;17.69;65.51;99333.69;5066659;28;8847;-80
2022/04/27 04:34:51;;;;;;;;;32.50;29.00;;;;;16.92;68.71;99344.03;5060094;28;8883;-81
2022/04/27 04:37:21;;;;;;;;;11.25;10.75;;;;;16.99;68.58;99342.06;5081136;28;8849;-80
2022/04/27 04:39:51;;;;;;;;;30.00;27.75;;;;;16.99;68.23;99342.91;5031193;28;8867;-81
2022/04/27 04:42:27;;;;;;;;;26.75;25.25;;;;;17.01;68.34;99349.00;5081203;28;8887;-80
2022/04/27 04:44:58;;;;;;;;;33.25;32.00;;;;;17.02;68.34;99352.50;5048652;28;8852;-80
2022/04/27 04:47:45;;;;;;;;;31.00;28.75;;;;;17.08;68.40;99353.19;5066526;28;8852;-81
2022/04/27 04:50:40;;;;;;;;;26.40;24.40;;;;;17.24;68.38;99355.34;5009775;28;8860;-80
2022/04/27 04:53:22;;;;;;;;;35.25;33.00;;;;;17.35;67.80;99355.88;4991226;28;8859;-80
2022/04/27 04:56:14;;;;;;;;;30.75;29.75;;;;;17.44;67.89;99365.28;4930822;29;8957;-82
2022/04/27 04:59:02;;;;;;;;;32.50;31.75;;;;;16.96;69.48;99369.38;4929782;29;8887;-82
2022/04/27 05:01:48;;;;;;;;;30.20;28.00;;;;;16.75;69.36;99379.56;4928136;29;8855;-80
2022/04/27 05:04:37;;;;;;;;;32.00;31.50;;;;;16.10;73.33;99377.81;4945756;28;8895;-80
2022/04/27 05:07:25;;;;;;;;;32.00;30.00;;;;;16.29;72.96;99374.72;4931832;28;8887;-80
2022/04/27 05:10:14;;;;;;;;;31.50;31.50;;;;;16.47;71.62;99376.00;4902077;29;9600;-81
2022/04/27 05:16:36;;;;;;;;;29.75;27.75;;;;;16.79;71.04;99379.50;4897699;29;9107;-80
2022/04/27 05:19:18;;;;;;;;;33.50;32.75;;;;;16.77;72.48;99380.41;5122705;27;13419;-81
2022/04/27 05:21:56;;;;;;;;;25.25;22.75;;;;;16.79;70.47;99380.34;5107750;28;8849;-81
2022/04/27 05:24:34;;;;;;;;;30.75;30.75;;;;;16.85;70.26;99384.63;5089281;28;8889;-82
2022/04/27 05:27:15;;;;;;;;;32.75;31.00;;;;;17.03;70.21;99385.84;5059462;28;8845;-80
2022/04/27 05:32:56;;;;;;;;;36.75;32.00;;;;;17.50;68.96;99387.03;5105049;28;8865;-81
2022/04/27 05:35:45;;;;;;;;;35.25;32.75;;;;;17.68;68.39;99395.28;5100088;28;8863;-83
2022/04/27 05:38:19;;;;;;;;;35.75;33.50;;;;;17.70;67.29;99404.00;5084441;28;8886;-81
2022/04/27 05:41:06;;;;;;;;;34.25;32.75;;;;;17.54;67.51;99407.13;5054825;28;8841;-80
2022/04/27 05:44:03;;;;;;;;;29.00;27.50;;;;;17.10;69.53;99408.47;5064467;28;8861;-81
2022/04/27 05:46:36;;;;;;;;;32.00;31.75;;;;;17.42;68.90;99398.72;5035804;28;8868;-81
2022/04/27 05:49:14;;;;;;;;;33.00;31.75;;;;;17.70;68.33;99410.13;5066177;28;9669;-80
2022/04/27 05:51:57;;;;;;;;;30.25;28.25;;;;;17.99;66.95;99413.63;5035946;28;8849;-81
2022/04/27 05:54:38;;;;;;;;;29.60;28.60;;;;;18.29;65.83;99416.16;5065814;28;8869;-83
2022/04/27 05:57:25;;;;;;;;;25.20;25.20;;;;;18.54;64.66;99412.66;5053409;28;9020;-82
2022/04/27 06:00:24;;;;;;;;;31.50;28.50;;;;;18.81;63.05;99413.47;5025804;28;8865;-82
2022/04/27 06:03:11;;;;;;;;;33.00;30.75;;;;;18.70;62.52;99427.06;5009682;28;8861;-80
2022/04/27 06:05:42;;;;;;;;;28.80;26.60;;;;;18.74;62.04;99433.09;5026249;28;8892;-81
2022/04/27 06:08:17;;;;;;;;;31.00;29.50;;;;;18.53;63.15;99432.94;5009313;28;9614;-82
2022/04/27 06:10:49;;;;;;;;;31.75;29.75;;;;;18.81;62.76;99424.91;5024618;28;9599;-82
2022/04/27 06:13:19;;;;;;;;;39.75;32.75;;;;;18.86;61.43;99433.50;5026154;28;8865;-82
2022/04/27 06:15:56;;;;;;;;;36.50;33.25;;;;;19.03;62.42;99434.69;5025847;28;8858;-81
2022/04/27 06:18:45;;;;;;;;;34.75;32.00;;;;;19.31;62.04;99438.94;5042836;28;9845;-81
2022/04/27 06:21:17;;;;;;;;;41.50;35.25;;;;;19.53;61.16;99429.25;5026917;28;8842;-81
2022/04/27 06:23:48;;;;;;;;;43.75;37.75;;;;;19.77;59.48;99435.41;5010390;28;8872;-81
2022/04/27 06:26:18;;;;;;;;;39.25;34.00;;;;;20.02;58.49;99442.34;5009281;28;8860;-81
2022/04/27 06:28:47;;;;;;;;;37.00;33.00;;;;;20.17;58.04;99438.19;5023780;28;8935;-81
2022/04/27 06:31:16;;;;;;;;;36.00;31.50;;;;;20.39;57.19;99431.06;5012899;28;8984;-80
2022/04/27 06:33:46;;;;;;;;;37.00;34.00;;;;;20.56;56.19;99432.13;5028024;28;8850;-80
2022/04/27 06:36:14;;;;;;;;;38.50;33.00;;;;;20.75;55.46;99440.16;5003800;28;8847;-84
2022/04/27 06:38:43;;;;;;;;;45.25;36.75;;;;;20.94;54.69;99424.31;5069270;28;8872;-82
2022/04/27 06:41:38;;;;;;;;;43.25;35.75;;;;;21.10;54.29;99430.63;5069186;28;8859;-81
2022/04/27 06:44:30;;;;;;;;;39.25;35.25;;;;;21.26;54.06;99437.88;5012752;28;9013;-81
2022/04/27 06:47:18;;;;;;;;;36.25;32.50;;;;;21.35;52.56;99424.19;5030976;28;8885;-82
2022/04/27 06:50:07;;;;;;;;;34.50;31.50;;;;;21.60;52.80;99418.59;5029354;28;8846;-82
2022/04/27 06:53:05;;;;;;;;;35.00;31.50;;;;;21.79;52.33;99423.88;4931220;29;8903;-81
2022/04/27 06:55:40;;;;;;;;;29.40;26.60;;;;;21.98;51.31;99423.84;4914715;29;8883;-81
2022/04/27 06:58:33;;;;;;;;;23.40;23.40;;;;;22.18;49.57;99417.53;4912868;29;8903;-81
2022/04/27 07:01:07;;;;;;;;;30.75;29.50;;;;;22.30;49.09;99421.41;4903973;29;8933;-82
2022/04/27 07:03:39;;;;;;;;;32.50;29.50;;;;;22.45;48.36;99417.94;4937980;29;10107;-80
2022/04/27 07:06:08;;;;;;;;;30.00;29.00;;;;;22.53;48.31;99429.06;4915550;29;8883;-81
2022/04/27 07:08:37;;;;;;;;;21.00;20.60;;;;;22.64;47.21;99423.16;4899895;29;9605;-81
2022/04/27 07:11:06;;;;;;;;;20.20;19.40;;;;;22.73;46.91;99419.19;4932435;29;8848;-82
2022/04/27 07:13:36;;;;;;;;;19.60;18.80;;;;;22.65;46.32;99426.72;4916926;29;8990;-81
2022/04/27 07:16:06;;;;;;;;;21.60;21.40;;;;;22.45;46.46;99422.41;4930994;29;9016;-83
2022/04/27 07:18:36;;;;;;;;;24.00;23.00;;;;;21.98;48.25;99423.84;4931489;29;8892;-81
2022/04/27 07:21:08;;;;;;;;;39.25;35.00;;;;;21.46;51.94;99423.72;4933917;28;8868;-83
2022/04/27 07:23:39;;;;;;;;;29.75;29.00;;;;;21.02;52.88;99425.69;4993017;28;8862;-81
2022/04/27 07:26:08;;;;;;;;;24.80;24.00;;;;;21.10;51.68;99425.34;4993787;28;8886;-81
2022/04/27 07:28:41;;;;;;;;;24.00;23.60;;;;;21.18;52.10;99430.28;4979467;28;8883;-81
2022/04/27 07:31:10;;;;;;;;;23.60;23.60;;;;;21.22;51.41;99429.19;5051300;28;8856;-82
2022/04/27 07:33:39;;;;;;;;;25.20;25.00;;;;;21.35;51.36;99438.31;5034675;28;8957;-81
2022/04/27 07:36:08;;;;;;;;;24.40;24.40;;;;;21.43;51.08;99436.16;5050766;28;8883;-83
2022/04/27 07:38:38;;;;;;;;;19.20;18.60;;;;;21.51;50.69;99427.00;5034742;28;8854;-82
2022/04/27 07:41:07;;;;;;;;;16.60;16.60;;;;;21.66;49.69;99430.72;5050360;28;8837;-81
2022/04/27 07:43:36;;;;;;;;;18.80;17.80;;;;;21.75;48.42;99432.94;4971972;28;8871;-81
2022/04/27 07:46:08;;;;;;;;;15.40;15.20;;;;;21.86;48.67;99433.28;4987709;28;8933;-83
2022/04/27 07:48:37;;;;;;;;;18.40;18.20;;;;;21.89;48.29;99434.91;4973627;28;8968;-81
2022/04/27 07:51:07;;;;;;;;;22.40;21.40;;;;;21.91;47.98;99439.22;4990979;28;8845;-80
2022/04/27 07:53:36;;;;;;;;;15.60;15.60;;;;;21.76;48.11;99437.31;4991100;28;8979;-81
2022/04/27 07:56:05;;;;;;;;;16.60;15.00;;;;;21.82;47.20;99438.81;4990919;28;8873;-82
2022/04/27 07:58:35;;;;;;;;;12.00;12.00;;;;;21.83;46.33;99438.72;4995820;28;8872;-81
2022/04/27 08:01:11;;;;;;;;;14.80;13.00;;;;;21.82;46.84;99444.13;4995929;28;8858;-82
2022/04/27 08:03:40;;;;;;;;;13.00;11.60;;;;;21.89;47.10;99448.19;4994916;28;8872;-83
2022/04/27 08:06:09;;;;;;;;;13.20;11.40;;;;;21.94;46.31;99441.72;4995686;28;8931;-81
2022/04/27 08:08:38;;;;;;;;;8.80;8.80;;;;;21.83;45.81;99448.50;5027018;28;8987;-80
2022/04/27 08:11:09;;;;;;;;;10.40;10.40;;;;;21.84;46.54;99453.72;4994287;28;8858;-82
2022/04/27 08:13:38;;;;;;;;;11.20;9.60;;;;;21.95;46.00;99450.56;5011785;28;8965;-81
2022/04/27 08:16:09;;;;;;;;;11.80;10.80;;;;;22.02;45.66;99451.97;5069334;28;8859;-80
2022/04/27 08:18:40;;;;;;;;;12.00;12.00;;;;;22.03;44.87;99453.69;5068156;28;9025;-83
2022/04/27 08:21:15;;;;;;;;;10.60;10.60;;;;;22.20;45.22;99453.72;5070174;28;8863;-81
2022/04/27 08:23:48;;;;;;;;;9.40;9.40;;;;;21.85;45.11;99441.31;5086485;28;8827;-81
2022/04/27 08:26:17;;;;;;;;;13.40;12.80;;;;;22.05;45.09;99449.16;5068942;28;8853;-82
2022/04/27 08:28:46;;;;;;;;;12.40;10.80;;;;;22.18;44.04;99439.66;5068570;28;8832;-82
2022/04/27 08:31:20;;;;;;;;;15.20;12.20;;;;;22.30;43.83;99440.00;5051278;28;8852;-81
2022/04/27 08:33:51;;;;;;;;;9.40;8.40;;;;;22.32;43.27;99436.31;5051527;28;8828;-81
2022/04/27 08:36:20;;;;;;;;;9.20;8.60;;;;;22.47;43.02;99436.47;5050939;28;9602;-81
2022/04/27 08:38:58;;;;;;;;;9.80;9.80;;;;;22.62;42.38;99437.50;5078701;28;8838;-81
2022/04/27 08:41:28;;;;;;;;;9.80;9.20;;;;;22.74;42.42;99448.34;5070801;28;8868;-81
2022/04/27 08:43:58;;;;;;;;;9.40;9.40;;;;;22.77;42.14;99442.00;5088047;28;8833;-81
2022/04/27 08:46:28;;;;;;;;;10.80;9.60;;;;;22.96;42.06;99439.22;5089039;28;8841;-81
2022/04/27 08:48:59;;;;;;;;;8.80;8.80;;;;;23.13;41.12;99433.03;5071481;28;8842;-82
2022/04/27 08:51:30;;;;;;;;;9.40;7.20;;;;;23.35;41.24;99444.22;5088755;28;8826;-79
2022/04/27 08:54:00;;;;;;;;;8.00;8.00;;;;;23.50;39.71;99439.00;5082819;28;8856;-83
2022/04/27 08:56:30;;;;;;;;;9.40;8.60;;;;;23.68;39.39;99432.63;5083288;28;8922;-82
2022/04/27 08:58:58;;;;;;;;;8.00;8.00;;;;;23.77;39.00;99435.75;5071408;28;8837;-83
2022/04/27 09:01:27;;;;;;;;;6.00;6.00;;;;;23.86;38.57;99435.25;5087471;28;8845;-81
2022/04/27 09:04:13;;;;;;;;;9.00;8.00;;;;;23.98;38.28;99433.69;5069557;28;8879;-82
2022/04/27 09:06:44;;;;;;;;;8.00;8.00;;;;;23.93;37.24;99437.47;5066935;28;8852;-82
2022/04/27 09:09:33;;;;;;;;;6.80;6.80;;;;;23.90;38.05;99429.66;5067164;28;8870;-81
2022/04/27 09:12:08;;;;;;;;;9.00;8.20;;;;;23.92;38.83;99429.56;5075060;28;8841;-81
2022/04/27 09:14:37;;;;;;;;;12.80;10.40;;;;;23.89;38.27;99433.28;5087243;28;8927;-81
2022/04/27 09:23:06;;;;;;;;;5.60;5.60;;;;;23.81;38.67;99424.00;5087229;28;8926;-80
2022/04/27 09:25:37;;;;;;;;;8.00;7.20;;;;;23.79;38.84;99418.75;5087123;28;8837;-81
2022/04/27 09:28:29;;;;;;;;;10.60;9.60;;;;;23.73;39.83;99419.06;5077732;28;8816;-83
2022/04/27 09:30:58;;;;;;;;;8.60;8.60;;;;;23.81;40.15;99418.66;5039715;28;8959;-80
2022/04/27 09:33:32;;;;;;;;;11.80;11.00;;;;;23.78;40.41;99422.34;5045412;28;8889;-81
2022/04/27 09:36:05;;;;;;;;;9.80;9.00;;;;;23.83;41.20;99424.75;5020168;28;8852;-79
2022/04/27 09:38:41;;;;;;;;;9.80;9.80;;;;;23.83;40.61;99424.75;4999410;28;8831;-80
2022/04/27 09:41:10;;;;;;;;;12.60;11.20;;;;;23.78;40.10;99426.78;5012609;28;8862;-81
2022/04/27 09:43:45;;;;;;;;;16.00;14.60;;;;;23.23;40.68;99426.28;5028848;28;9471;-79
2022/04/27 09:46:16;;;;;;;;;11.00;10.20;;;;;23.15;41.28;99428.50;5029360;28;9090;-80
2022/04/27 09:48:47;;;;;;;;;13.40;13.00;;;;;23.30;40.51;99424.97;5012455;28;8843;-79
2022/04/27 09:51:16;;;;;;;;;12.60;11.00;;;;;23.27;40.63;99422.50;5046163;28;8853;-78
2022/04/27 09:53:49;;;;;;;;;9.60;9.60;;;;;23.28;40.20;99426.03;5045746;28;8838;-80
2022/04/27 09:56:19;;;;;;;;;9.60;9.60;;;;;23.35;40.20;99425.59;5029161;28;8843;-80
2022/04/27 09:58:49;;;;;;;;;10.20;9.40;;;;;23.23;39.55;99414.75;5029253;28;8855;-78
2022/04/27 10:01:19;;;;;;;;;7.80;7.80;;;;;22.84;39.49;99416.81;5033752;28;8872;-80
2022/04/27 10:03:49;;;;;;;;;8.00;8.00;;;;;23.10;40.19;99418.13;5049039;28;8836;-79
2022/04/27 10:06:20;;;;;;;;;9.40;8.20;;;;;23.20;39.15;99413.16;5053078;28;9605;-78
2022/04/27 10:08:51;;;;;;;;;7.40;7.40;;;;;23.03;39.00;99413.19;5056990;28;8871;-80
2022/04/27 10:11:21;;;;;;;;;7.20;7.20;;;;;23.31;38.23;99418.75;5091749;28;8877;-80
2022/04/27 10:13:52;;;;;;;;;8.00;8.00;;;;;22.47;38.51;99410.75;5089659;28;8872;-81
2022/04/27 10:16:22;;;;;;;;;11.40;10.40;;;;;21.84;39.83;99407.75;5090871;28;8846;-80
2022/04/27 10:18:51;;;;;;;;;7.20;7.20;;;;;22.24;39.97;99403.94;5090350;28;8966;-80
2022/04/27 10:21:43;;;;;;;;;9.60;7.00;;;;;22.50;38.86;99404.44;5091426;28;8934;-79
2022/04/27 10:24:12;;;;;;;;;9.60;9.00;;;;;22.87;39.25;99405.16;5079578;28;8844;-80
2022/04/27 10:26:40;;;;;;;;;10.60;9.80;;;;;23.04;39.69;99399.81;5078047;28;8833;-80
2022/04/27 10:29:12;;;;;;;;;8.80;8.00;;;;;23.20;39.83;99399.84;5054028;28;8864;-80
2022/04/27 10:32:02;;;;;;;;;7.20;7.20;;;;;23.38;38.34;99402.41;5070953;28;8848;-81
2022/04/27 10:34:32;;;;;;;;;6.40;6.40;;;;;23.55;37.52;99394.34;5053961;28;8873;-79
2022/04/27 10:37:03;;;;;;;;;9.60;9.40;;;;;23.74;38.95;99394.16;5070357;28;8913;-80
2022/04/27 10:39:34;;;;;;;;;13.20;10.80;;;;;22.32;40.45;99404.44;5078836;28;8888;-80
2022/04/27 10:42:34;;;;;;;;;11.40;10.00;;;;;22.32;40.71;99392.97;5075688;28;8852;-78
2022/04/27 10:45:12;;;;;;;;;9.20;9.20;;;;;22.80;39.99;99380.69;5072480;28;8827;-80
2022/04/27 10:47:43;;;;;;;;;11.40;11.20;;;;;22.86;40.68;99384.84;5071013;28;8882;-80
2022/04/27 10:50:23;;;;;;;;;11.80;11.40;;;;;23.22;40.96;99389.13;5070863;28;9783;-80
2022/04/27 10:52:55;;;;;;;;;11.00;11.00;;;;;23.54;38.74;99393.50;5069505;28;8941;-81
2022/04/27 10:55:43;;;;;;;;;10.00;10.00;;;;;23.90;38.47;99383.53;5052257;28;8980;-81
2022/04/27 10:58:14;;;;;;;;;22.00;21.20;;;;;23.74;38.78;99388.81;5070277;28;8969;-80
2022/04/27 11:01:25;;;;;;;;;10.20;10.20;;;;;24.13;37.41;99384.81;5069040;28;8852;-81
2022/04/27 11:03:57;;;;;;;;;9.00;9.00;;;;;24.54;35.75;99375.31;5052420;28;8863;-80
2022/04/27 11:06:25;;;;;;;;;10.20;10.20;;;;;24.91;36.40;99376.56;5070973;28;8844;-80
2022/04/27 11:09:25;;;;;;;;;7.40;7.40;;;;;25.18;34.53;99368.66;5034834;28;8864;-81
2022/04/27 11:11:55;;;;;;;;;11.40;11.40;;;;;25.39;35.14;99363.78;4992080;28;8867;-81
2022/04/27 11:14:31;;;;;;;;;14.00;12.60;;;;;25.28;35.36;99371.63;5009352;28;8969;-79
2022/04/27 11:17:00;;;;;;;;;11.20;10.80;;;;;25.55;35.88;99366.28;4983271;28;8915;-79
2022/04/27 11:19:36;;;;;;;;;10.20;10.20;;;;;25.62;35.81;99366.75;4977123;28;8883;-79
2022/04/27 11:22:16;;;;;;;;;14.20;13.40;;;;;25.77;35.04;99357.72;5008681;28;8946;-80
2022/04/27 11:24:48;;;;;;;;;12.80;12.80;;;;;25.52;34.68;99361.16;4992074;28;9690;-82
2022/04/27 11:27:26;;;;;;;;;13.60;12.20;;;;;24.72;36.99;99363.53;4988767;28;8869;-81
2022/04/27 11:29:56;;;;;;;;;13.00;13.00;;;;;25.17;35.29;99360.72;4972428;28;8906;-80
2022/04/27 11:32:28;;;;;;;;;10.40;10.40;;;;;25.37;36.29;99362.13;4980049;28;8886;-82
2022/04/27 11:34:57;;;;;;;;;10.40;9.60;;;;;25.82;36.17;99362.75;4992046;28;8840;-80
2022/04/27 11:37:26;;;;;;;;;9.40;8.20;;;;;26.17;35.15;99359.56;5008182;28;8847;-81
2022/04/27 11:40:12;;;;;;;;;12.80;12.40;;;;;26.50;33.58;99356.34;4991653;28;8867;-82
2022/04/27 11:42:46;;;;;;;;;10.60;10.60;;;;;26.67;32.75;99354.34;4959478;28;8906;-80
2022/04/27 11:45:19;;;;;;;;;11.60;10.60;;;;;26.65;32.11;99354.47;4991729;28;8875;-81
2022/04/27 11:47:59;;;;;;;;;9.80;9.80;;;;;26.70;33.24;99351.47;5001073;28;8939;-80
2022/04/27 11:50:30;;;;;;;;;10.20;9.60;;;;;26.89;32.89;99354.56;5070372;28;8912;-80
2022/04/27 11:53:00;;;;;;;;;10.40;9.80;;;;;27.16;32.72;99346.34;5018159;28;8833;-81
2022/04/27 11:55:31;;;;;;;;;8.80;8.80;;;;;27.16;32.10;99345.50;5066898;28;8846;-81
2022/04/27 11:58:01;;;;;;;;;9.20;9.20;;;;;27.04;32.67;99344.56;5053406;28;8873;-80
2022/04/27 12:00:31;;;;;;;;;9.40;9.40;;;;;26.95;32.54;99343.41;5054962;28;8847;-81
2022/04/27 12:03:03;;;;;;;;;12.00;11.20;;;;;26.77;33.34;99337.56;5029803;28;9781;-81
2022/04/27 12:05:34;;;;;;;;;11.00;8.60;;;;;26.97;32.70;99330.75;5046519;28;8865;-80
2022/04/27 12:08:07;;;;;;;;;9.20;8.40;;;;;27.22;32.32;99331.66;5046161;28;8858;-80
2022/04/27 12:10:41;;;;;;;;;11.00;9.20;;;;;27.55;32.15;99327.50;5013784;28;8834;-79
2022/04/27 12:13:11;;;;;;;;;7.60;6.00;;;;;27.67;31.16;99320.38;5026821;28;8860;-82
2022/04/27 12:15:43;;;;;;;;;9.60;8.80;;;;;28.15;30.75;99326.53;4978183;28;8922;-80
2022/04/27 12:18:16;;;;;;;;;8.00;8.00;;;;;28.56;29.41;99317.13;5010189;28;8888;-81
2022/04/27 12:20:46;;;;;;;;;9.60;8.80;;;;;28.74;29.50;99319.31;5026867;28;8959;-80